Time;durP1;ratioP1;P1;durP2;ratioP2;P2;SDS_P1;SDS_P2;PMS_P1;PMS_P2;Temp;Humidity;BMP_temperature;BMP_pressure;BME280_temperature;BME280_humidity;BME280_pressure;Samples;Min_cycle;Max_cycle;Signal;HPM_P1;HPM_P2
2022/03/28 00:01:35;;;;;;;4.00;3.70;;;20.40;49.40;21.40;101821.00;;;;4986774;28;20178;-56
2022/03/28 00:04:01;;;;;;;4.03;3.63;;;20.40;49.40;21.30;101813.00;;;;4987086;28;20182;-55
2022/03/28 00:06:27;;;;;;;4.07;3.67;;;20.40;49.40;21.30;101812.00;;;;4986821;28;20610;-56
2022/03/28 00:08:53;;;;;;;4.10;3.80;;;20.30;49.40;21.30;101800.00;;;;4985673;28;20197;-55
2022/03/28 00:11:18;;;;;;;4.10;3.80;;;20.30;49.40;21.30;101805.00;;;;4986734;28;20415;-57
2022/03/28 00:13:44;;;;;;;4.17;3.87;;;20.30;49.40;21.30;101804.00;;;;4985703;28;20710;-56
2022/03/28 00:16:10;;;;;;;4.00;3.70;;;20.30;49.40;21.20;101803.00;;;;4985315;28;20633;-54
2022/03/28 00:18:36;;;;;;;4.20;3.80;;;20.30;49.40;21.20;101808.00;;;;4985743;28;20293;-57
2022/03/28 00:21:01;;;;;;;4.30;4.00;;;20.30;49.40;21.20;101805.00;;;;4985672;28;20689;-55
2022/03/28 00:23:27;;;;;;;4.03;3.73;;;20.30;49.40;21.20;101798.00;;;;4986737;28;20524;-56
2022/03/28 00:25:53;;;;;;;4.07;3.77;;;20.30;49.40;21.20;101803.00;;;;4985823;28;20324;-56
2022/03/28 00:28:19;;;;;;;4.20;3.87;;;20.20;49.40;21.20;101781.00;;;;4989736;28;20568;-55
2022/03/28 00:30:44;;;;;;;4.47;4.07;;;20.20;49.40;21.10;101782.00;;;;4985391;28;20176;-57
2022/03/28 00:33:10;;;;;;;4.17;3.80;;;20.20;49.40;21.10;101783.00;;;;4987003;28;20582;-55
2022/03/28 00:35:36;;;;;;;4.20;3.90;;;20.20;49.40;21.10;101779.00;;;;4986857;28;20184;-57
2022/03/28 00:38:05;;;;;;;4.20;3.90;;;20.10;49.30;21.10;101783.00;;;;4986181;28;20710;-54
2022/03/28 00:40:32;;;;;;;4.13;3.83;;;20.10;49.40;21.10;101778.00;;;;4986974;28;20175;-57
2022/03/28 00:43:03;;;;;;;4.03;3.73;;;20.10;49.40;21.10;101781.00;;;;4988224;28;20294;-56
2022/03/28 00:45:30;;;;;;;4.07;3.77;;;20.10;49.30;21.00;101782.00;;;;4988127;28;20163;-55
2022/03/28 00:47:56;;;;;;;4.03;3.73;;;20.10;49.30;21.00;101778.00;;;;4987144;28;20200;-56
2022/03/28 00:50:21;;;;;;;4.37;3.97;;;20.10;49.30;21.00;101775.00;;;;4987571;28;20173;-56
2022/03/28 00:52:47;;;;;;;3.87;3.53;;;20.10;49.30;21.00;101764.00;;;;4987225;28;20252;-56
2022/03/28 00:55:13;;;;;;;4.10;3.77;;;20.10;49.30;21.00;101768.00;;;;4985463;28;20207;-57
2022/03/28 00:57:39;;;;;;;4.53;4.07;;;20.00;49.20;21.00;101755.00;;;;4986443;28;20177;-56
2022/03/28 01:00:07;;;;;;;4.10;3.70;;;20.00;49.20;20.70;101749.00;;;;4985295;28;20207;-55
2022/03/28 01:02:32;;;;;;;4.43;4.03;;;20.00;49.20;20.70;101754.00;;;;4986567;28;20173;-56
2022/03/28 01:04:59;;;;;;;4.40;4.00;;;20.00;49.90;20.90;101751.00;;;;4986624;28;20221;-55
2022/03/28 01:07:28;;;;;;;4.10;3.77;;;20.00;50.00;20.90;101751.00;;;;4968611;28;20169;-56
2022/03/28 01:09:55;;;;;;;4.20;3.90;;;19.90;49.20;20.90;101753.00;;;;4988804;28;20233;-55
2022/03/28 01:12:22;;;;;;;4.17;3.87;;;19.90;49.20;20.80;101747.00;;;;4988949;28;20733;-56
2022/03/28 01:14:49;;;;;;;4.27;3.97;;;19.90;49.20;20.80;101745.00;;;;4989326;28;20642;-56
2022/03/28 01:19:59;;;;;;;3.90;3.60;;;19.90;49.30;20.80;101741.00;;;;4990111;28;20248;-56
2022/03/28 01:22:24;;;;;;;3.90;3.60;;;19.90;49.30;20.80;101743.00;;;;4990185;28;20392;-55
2022/03/28 01:24:50;;;;;;;4.33;3.93;;;19.80;49.30;20.80;101736.00;;;;4990391;28;20189;-55
2022/03/28 01:27:16;;;;;;;4.20;3.83;;;19.80;49.30;20.80;101734.00;;;;4990058;28;20216;-55
2022/03/28 01:29:42;;;;;;;3.87;3.57;;;19.80;49.30;20.70;101730.00;;;;4988806;28;20200;-55
2022/03/28 01:32:09;;;;;;;4.00;3.70;;;19.80;49.30;20.70;101723.00;;;;4988468;28;20176;-55
2022/03/28 01:34:34;;;;;;;4.60;4.20;;;19.80;49.30;20.70;101717.00;;;;4989776;28;20234;-57
2022/03/28 01:37:00;;;;;;;3.83;3.53;;;19.80;49.30;20.70;101699.00;;;;4989872;28;20176;-55
2022/03/28 01:39:26;;;;;;;3.97;3.67;;;19.80;49.30;20.70;101714.00;;;;4988206;28;20259;-57
2022/03/28 01:41:52;;;;;;;3.90;3.60;;;19.80;49.20;20.60;101710.00;;;;4989820;28;20389;-55
2022/03/28 01:44:17;;;;;;;4.00;3.70;;;19.70;49.20;20.60;101705.00;;;;4988333;28;20208;-55
2022/03/28 01:46:45;;;;;;;3.90;3.60;;;19.70;49.20;20.60;101698.00;;;;4988170;28;20172;-56
2022/03/28 01:49:12;;;;;;;4.40;4.00;;;19.70;49.20;20.60;101709.00;;;;4988251;28;20275;-55
2022/03/28 01:51:38;;;;;;;4.00;3.70;;;19.70;49.20;20.60;101712.00;;;;4988167;28;20515;-56
2022/03/28 01:54:04;;;;;;;4.20;3.80;;;19.70;49.20;20.60;101704.00;;;;4989235;28;20200;-56
2022/03/28 01:56:30;;;;;;;4.40;4.00;;;19.70;49.20;20.50;101698.00;;;;4989238;28;20172;-55
2022/03/28 01:58:55;;;;;;;4.10;3.80;;;19.60;49.10;20.50;101690.00;;;;4987866;28;20207;-56
2022/03/28 02:01:21;;;;;;;3.90;3.60;;;19.70;49.20;20.50;101706.00;;;;4988029;28;20185;-57
2022/03/28 02:03:47;;;;;;;4.20;3.90;;;19.70;49.20;20.50;101685.00;;;;4989355;28;20172;-57
2022/03/28 02:06:12;;;;;;;4.17;3.77;;;19.60;49.10;20.50;101688.00;;;;4987724;28;20180;-55
2022/03/28 02:08:38;;;;;;;4.20;3.90;;;19.60;49.20;20.50;101680.00;;;;4987334;28;20235;-55
2022/03/28 02:11:04;;;;;;;4.17;3.87;;;19.60;49.40;20.50;101680.00;;;;4988994;28;20180;-57
2022/03/28 02:13:30;;;;;;;4.07;3.77;;;19.60;49.40;20.40;101683.00;;;;4989025;28;20180;-55
2022/03/28 02:15:55;;;;;;;4.30;3.90;;;19.60;49.40;20.40;101690.00;;;;4988512;28;20199;-53
2022/03/28 02:18:21;;;;;;;3.60;3.30;;;19.50;49.40;20.40;101678.00;;;;4988541;28;20230;-57
2022/03/28 02:20:47;;;;;;;3.90;3.60;;;19.50;49.40;20.40;101687.00;;;;4988302;28;20227;-54
2022/03/28 02:23:12;;;;;;;4.43;4.07;;;19.50;50.00;20.40;101669.00;;;;4989147;28;20557;-57
2022/03/28 02:25:39;;;;;;;4.03;3.70;;;19.50;49.40;20.40;101682.00;;;;4988919;28;20653;-56
2022/03/28 02:28:05;;;;;;;4.10;3.70;;;19.50;49.50;20.40;101681.00;;;;4988679;28;20204;-55
2022/03/28 02:30:31;;;;;;;4.13;3.83;;;19.40;49.30;20.30;101685.00;;;;4987582;28;20262;-56
2022/03/28 02:32:57;;;;;;;3.90;3.60;;;19.40;49.40;20.40;101685.00;;;;4987567;28;20214;-57
2022/03/28 02:35:23;;;;;;;4.30;3.90;;;19.50;49.50;20.30;101659.00;;;;4988843;28;20180;-57
2022/03/28 02:37:49;;;;;;;4.10;3.70;;;19.40;49.40;20.30;101677.00;;;;4987021;28;20713;-56
2022/03/28 02:40:15;;;;;;;3.80;3.50;;;19.40;49.50;20.30;101684.00;;;;4987201;28;20279;-56
2022/03/28 02:42:40;;;;;;;3.97;3.67;;;19.40;49.40;20.30;101676.00;;;;4988950;28;20168;-56
2022/03/28 02:45:07;;;;;;;4.00;3.70;;;19.40;49.40;20.20;101673.00;;;;4988427;28;20239;-55
2022/03/28 02:47:33;;;;;;;3.90;3.60;;;19.40;49.50;20.20;101671.00;;;;4988257;28;20196;-54
2022/03/28 02:49:58;;;;;;;4.33;4.00;;;19.30;49.30;20.20;101671.00;;;;4988160;28;20659;-57
2022/03/28 02:52:24;;;;;;;3.97;3.60;;;19.30;49.30;20.20;101670.00;;;;4988189;28;20219;-55
2022/03/28 02:54:50;;;;;;;4.40;4.00;;;19.30;49.40;20.20;101643.00;;;;4988104;28;20183;-56
2022/03/28 02:57:15;;;;;;;3.90;3.60;;;19.30;49.40;20.20;101658.00;;;;4986642;28;20180;-56
2022/03/28 02:59:41;;;;;;;4.00;3.70;;;19.30;49.40;20.20;101657.00;;;;4988261;28;20605;-55
2022/03/28 03:02:07;;;;;;;4.17;3.77;;;19.30;49.30;20.10;101656.00;;;;4988643;28;20208;-55
2022/03/28 03:04:33;;;;;;;4.40;4.10;;;19.30;49.40;20.10;101644.00;;;;4989136;28;20176;-55
2022/03/28 03:06:59;;;;;;;4.00;3.70;;;19.20;49.40;20.10;101652.00;;;;4988198;28;20196;-54
2022/03/28 03:09:25;;;;;;;4.03;3.73;;;19.20;49.50;20.10;101644.00;;;;4990109;28;20216;-56
2022/03/28 03:11:50;;;;;;;4.00;3.70;;;19.20;49.50;20.10;101649.00;;;;4987266;28;20550;-57
2022/03/28 03:14:16;;;;;;;4.17;3.87;;;19.20;49.50;20.10;101645.00;;;;4987758;28;20183;-57
2022/03/28 03:16:42;;;;;;;4.33;3.93;;;19.20;49.50;20.10;101632.00;;;;4986582;28;20634;-55
2022/03/28 03:19:08;;;;;;;4.33;3.90;;;19.20;49.50;20.10;101636.00;;;;4987962;28;20420;-54
2022/03/28 03:21:33;;;;;;;4.93;4.33;;;19.20;49.50;20.00;101634.00;;;;4985884;28;20664;-55
2022/03/28 03:23:59;;;;;;;3.93;3.63;;;19.10;49.40;20.00;101631.00;;;;4987209;28;20492;-54
2022/03/28 03:26:25;;;;;;;4.07;3.77;;;19.20;49.50;20.00;101629.00;;;;4986912;28;20180;-55
2022/03/28 03:28:51;;;;;;;4.30;3.90;;;19.10;49.40;20.00;101627.00;;;;4987103;28;20203;-54
2022/03/28 03:31:16;;;;;;;5.27;3.83;;;19.10;49.40;20.00;101633.00;;;;4986757;28;20339;-53
2022/03/28 03:33:42;;;;;;;4.67;4.10;;;19.10;49.50;20.00;101624.00;;;;4986829;28;20183;-55
2022/03/28 03:36:08;;;;;;;3.97;3.67;;;19.10;49.40;20.00;101609.00;;;;4986823;28;20270;-56
2022/03/28 03:38:34;;;;;;;3.80;3.40;;;19.10;49.40;20.00;101628.00;;;;4985633;28;20212;-54
2022/03/28 03:40:59;;;;;;;4.77;3.40;;;19.10;49.50;20.00;101618.00;;;;4986728;28;20183;-55
2022/03/28 03:43:25;;;;;;;8.93;3.70;;;19.10;49.40;20.00;101629.00;;;;4986939;28;20587;-55
2022/03/28 03:45:51;;;;;;;4.20;3.43;;;19.00;49.40;20.00;101624.00;;;;4986547;28;20183;-56
2022/03/28 03:48:19;;;;;;;4.83;3.37;;;19.00;49.40;20.00;101625.00;;;;4985332;28;20295;-55
2022/03/28 03:50:44;;;;;;;5.00;3.33;;;19.10;49.50;19.90;101618.00;;;;4985739;28;20251;-55
2022/03/28 03:53:10;;;;;;;3.53;3.00;;;19.00;49.40;19.90;101619.00;;;;4985585;28;20765;-54
2022/03/28 03:55:36;;;;;;;4.70;3.10;;;19.00;49.40;19.90;101622.00;;;;4986681;28;20208;-55
2022/03/28 03:58:03;;;;;;;3.40;3.10;;;19.00;49.40;19.90;101617.00;;;;4987704;28;20206;-54
2022/03/28 04:00:28;;;;;;;3.37;3.07;;;19.00;49.50;19.90;101615.00;;;;4984653;28;20187;-55
2022/03/28 04:02:54;;;;;;;3.50;3.20;;;19.00;49.40;19.80;101619.00;;;;4987596;28;20183;-55
2022/03/28 04:05:20;;;;;;;3.03;2.73;;;19.00;49.40;19.80;101591.00;;;;4987156;28;20165;-54
2022/03/28 04:07:46;;;;;;;3.13;2.93;;;19.00;49.40;19.80;101561.00;;;;4985954;28;20672;-54
2022/03/28 04:10:12;;;;;;;3.43;3.00;;;18.90;49.30;19.80;101597.00;;;;4986754;28;20192;-54
2022/03/28 04:12:38;;;;;;;3.93;2.93;;;18.90;49.30;19.80;101605.00;;;;4986706;28;20600;-54
2022/03/28 04:15:05;;;;;;;3.13;2.90;;;18.90;49.30;19.80;101589.00;;;;4985279;28;20242;-55
2022/03/28 04:17:42;;;;;;;3.87;2.97;;;18.90;49.40;19.80;101598.00;;;;4984595;28;20206;-55
2022/03/28 04:20:13;;;;;;;3.10;2.80;;;18.90;49.30;19.80;101596.00;;;;4986232;28;20546;-55
2022/03/28 04:22:40;;;;;;;3.37;3.07;;;18.80;49.20;19.80;101595.00;;;;4986415;28;20172;-54
2022/03/28 04:25:08;;;;;;;3.00;2.80;;;18.80;49.20;19.80;101554.00;;;;4968757;28;20183;-56
2022/03/28 04:27:35;;;;;;;4.97;3.00;;;18.80;49.20;19.80;101592.00;;;;4984772;28;20184;-54
2022/03/28 04:30:03;;;;;;;4.57;2.90;;;18.90;49.50;19.80;101582.00;;;;4986026;28;20180;-55
2022/03/28 04:32:29;;;;;;;3.30;2.70;;;18.80;49.50;19.80;101584.00;;;;4984474;28;20272;-54
2022/03/28 04:34:54;;;;;;;3.03;2.83;;;18.80;49.50;19.70;101586.00;;;;4985965;28;20181;-54
2022/03/28 04:37:20;;;;;;;3.30;2.90;;;18.80;49.60;19.70;101576.00;;;;4984792;28;20183;-55
2022/03/28 04:39:46;;;;;;;3.17;2.87;;;18.80;49.60;19.70;101554.00;;;;4986100;28;20215;-55
2022/03/28 04:42:12;;;;;;;4.43;2.90;;;18.80;49.70;19.70;101586.00;;;;4984725;28;20172;-55
2022/03/28 04:44:38;;;;;;;4.30;2.80;;;18.80;49.70;19.70;101573.00;;;;4988923;28;20171;-54
2022/03/28 04:47:04;;;;;;;4.53;3.07;;;18.70;49.70;19.70;101566.00;;;;4989527;28;20188;-55
2022/03/28 04:49:29;;;;;;;2.90;2.60;;;18.70;49.70;19.70;101567.00;;;;4988211;28;20209;-56
2022/03/28 04:51:55;;;;;;;3.40;2.97;;;18.70;49.70;19.70;101575.00;;;;4989716;28;20180;-54
2022/03/28 04:54:21;;;;;;;3.83;2.80;;;18.70;49.70;19.70;101572.00;;;;4989497;28;20201;-53
2022/03/28 04:56:46;;;;;;;3.00;2.80;;;18.70;49.80;19.60;101567.00;;;;4989746;28;20177;-55
2022/03/28 04:59:12;;;;;;;4.20;3.00;;;18.70;49.80;19.60;101571.00;;;;4989861;28;20243;-54
2022/03/28 05:01:38;;;;;;;3.13;2.83;;;18.70;49.80;19.60;101575.00;;;;4988083;28;20179;-54
2022/03/28 05:04:04;;;;;;;3.13;2.67;;;18.70;49.80;19.60;101568.00;;;;4989452;28;20583;-55
2022/03/28 05:06:30;;;;;;;3.70;2.70;;;18.60;49.70;19.60;101583.00;;;;4988004;28;20748;-54
2022/03/28 05:08:56;;;;;;;3.13;2.83;;;18.60;49.70;19.50;101583.00;;;;4987975;28;20221;-54
2022/03/28 05:11:22;;;;;;;3.13;2.90;;;18.60;49.70;19.50;101581.00;;;;4988070;28;20183;-55
2022/03/28 05:13:49;;;;;;;3.20;2.90;;;18.60;49.80;19.50;101578.00;;;;4989126;28;20307;-53
2022/03/28 05:16:15;;;;;;;3.33;2.80;;;18.60;49.80;19.50;101576.00;;;;4988845;28;20176;-55
2022/03/28 05:18:42;;;;;;;2.83;2.63;;;18.60;49.80;19.50;101571.00;;;;4988075;28;20318;-54
2022/03/28 05:21:07;;;;;;;2.80;2.60;;;18.60;49.80;19.50;101560.00;;;;4990908;28;20829;-53
2022/03/28 05:23:33;;;;;;;3.10;2.80;;;18.60;49.80;19.50;101565.00;;;;4971389;28;20195;-53
2022/03/28 05:25:59;;;;;;;3.30;3.00;;;18.60;49.70;19.50;101559.00;;;;4987296;28;20175;-54
2022/03/28 05:28:24;;;;;;;2.87;2.60;;;18.50;49.70;19.50;101568.00;;;;4989434;28;20203;-52
2022/03/28 05:30:51;;;;;;;2.80;2.60;;;18.50;49.60;19.40;101560.00;;;;4988797;28;20176;-53
2022/03/28 05:33:17;;;;;;;3.03;2.80;;;18.50;49.70;19.40;101563.00;;;;4988709;28;20219;-54
2022/03/28 05:35:44;;;;;;;2.73;2.53;;;18.50;49.70;19.40;101561.00;;;;4988885;28;20191;-53
2022/03/28 05:38:10;;;;;;;2.80;2.60;;;18.50;49.70;19.40;101556.00;;;;4987066;28;20661;-54
2022/03/28 05:40:35;;;;;;;3.00;2.80;;;18.40;49.70;19.40;101560.00;;;;4987894;28;20172;-54
2022/03/28 05:43:02;;;;;;;3.30;3.00;;;18.50;49.70;19.40;101538.00;;;;4987460;28;20225;-54
2022/03/28 05:45:28;;;;;;;3.00;2.70;;;18.50;49.70;19.40;101556.00;;;;4986961;28;20171;-54
2022/03/28 05:47:53;;;;;;;3.00;2.73;;;18.50;50.40;19.30;101557.00;;;;4987250;28;20388;-54
2022/03/28 05:50:19;;;;;;;2.97;2.77;;;18.40;49.80;19.30;101564.00;;;;4989223;28;20707;-53
2022/03/28 05:52:45;;;;;;;2.67;2.47;;;18.40;49.80;19.30;101554.00;;;;4988710;28;20184;-54
2022/03/28 05:55:11;;;;;;;3.07;2.70;;;18.40;49.80;19.30;101555.00;;;;4987360;28;20167;-54
2022/03/28 05:57:37;;;;;;;2.90;2.70;;;18.40;49.70;19.30;101552.00;;;;4988470;28;20172;-55
2022/03/28 06:00:05;;;;;;;2.80;2.60;;;18.40;49.80;19.30;101549.00;;;;4988099;28;20756;-53
2022/03/28 06:02:32;;;;;;;2.80;2.60;;;18.40;49.80;19.30;101551.00;;;;4988428;28;20573;-53
2022/03/28 06:04:58;;;;;;;2.90;2.70;;;18.30;49.70;19.30;101565.00;;;;4988317;28;20174;-54
2022/03/28 06:07:23;;;;;;;3.03;2.83;;;18.40;49.70;19.30;101554.00;;;;4988749;28;20180;-55
2022/03/28 06:09:49;;;;;;;2.80;2.60;;;18.30;49.70;19.20;101556.00;;;;4988358;28;20339;-54
2022/03/28 06:12:15;;;;;;;2.80;2.60;;;18.30;49.70;19.20;101564.00;;;;4988837;28;20692;-55
2022/03/28 06:14:41;;;;;;;2.77;2.57;;;18.30;49.70;19.20;101563.00;;;;4987782;28;20215;-53
2022/03/28 06:17:06;;;;;;;2.70;2.50;;;18.30;49.70;19.20;101561.00;;;;4988133;28;20188;-54
2022/03/28 06:19:32;;;;;;;3.10;2.60;;;18.30;49.70;19.20;101571.00;;;;4988008;28;20200;-54
2022/03/28 06:21:58;;;;;;;2.80;2.60;;;18.20;49.60;19.20;101570.00;;;;4988298;28;20642;-53
2022/03/28 06:24:24;;;;;;;2.73;2.53;;;18.20;49.60;19.20;101558.00;;;;4987958;28;20665;-53
2022/03/28 06:26:49;;;;;;;2.70;2.50;;;18.30;49.70;19.20;101563.00;;;;4988337;28;20254;-54
2022/03/28 06:29:15;;;;;;;3.10;2.70;;;18.20;49.60;19.20;101561.00;;;;4987648;28;20196;-54
2022/03/28 06:31:41;;;;;;;2.90;2.70;;;18.20;49.60;19.10;101574.00;;;;4987822;28;20496;-53
2022/03/28 06:34:07;;;;;;;2.80;2.60;;;18.20;49.70;19.10;101576.00;;;;4987467;28;20181;-52
2022/03/28 06:36:33;;;;;;;2.90;2.70;;;18.20;49.70;19.10;101561.00;;;;4987837;28;20197;-53
2022/03/28 06:39:00;;;;;;;2.87;2.67;;;18.20;49.80;19.10;101564.00;;;;4986349;28;20677;-51
2022/03/28 06:41:26;;;;;;;2.97;2.77;;;18.20;49.80;19.10;101559.00;;;;4986888;28;20526;-55
2022/03/28 06:43:52;;;;;;;2.73;2.53;;;18.20;49.90;19.10;101563.00;;;;4987275;28;20235;-53
2022/03/28 06:46:20;;;;;;;3.00;2.80;;;18.20;49.80;19.10;101565.00;;;;4986152;28;20171;-53
2022/03/28 06:48:47;;;;;;;3.17;2.93;;;18.10;49.80;19.00;101557.00;;;;4986437;28;20192;-53
2022/03/28 06:51:13;;;;;;;2.83;2.50;;;18.10;49.80;19.10;101552.00;;;;4987772;28;20178;-53
2022/03/28 06:53:38;;;;;;;2.70;2.50;;;18.10;49.90;19.00;101559.00;;;;4815461;28;20180;-51
2022/03/28 06:56:05;;;;;;;2.93;2.70;;;18.10;49.90;19.00;101553.00;;;;4987344;28;20164;-52
2022/03/28 06:58:30;;;;;;;3.10;2.90;;;18.10;50.00;19.00;101553.00;;;;4996781;28;20210;-53
2022/03/28 07:00:56;;;;;;;2.80;2.60;;;18.10;50.00;19.00;101554.00;;;;4999472;28;20173;-51
2022/03/28 07:03:22;;;;;;;2.83;2.63;;;18.10;50.00;19.00;101551.00;;;;4984647;28;20194;-53
2022/03/28 07:05:48;;;;;;;2.80;2.60;;;18.10;50.70;19.00;101552.00;;;;4986044;28;20653;-52
2022/03/28 07:08:13;;;;;;;2.80;2.60;;;18.10;50.00;19.00;101545.00;;;;4986179;28;20207;-53
2022/03/28 07:10:40;;;;;;;2.67;2.47;;;18.10;50.70;19.00;101549.00;;;;4986135;28;20208;-52
2022/03/28 07:13:06;;;;;;;2.90;2.70;;;18.10;50.00;19.00;101541.00;;;;4982491;28;20171;-55
2022/03/28 07:15:31;;;;;;;2.97;2.77;;;18.00;50.00;19.00;101545.00;;;;4984261;28;20679;-54
2022/03/28 07:18:02;;;;;;;2.80;2.60;;;18.00;50.00;19.00;101543.00;;;;4987472;28;20558;-54
2022/03/28 07:20:29;;;;;;;2.67;2.47;;;18.00;50.10;19.00;101541.00;;;;4987008;28;20186;-54
2022/03/28 07:22:55;;;;;;;2.73;2.53;;;18.00;50.10;18.90;101545.00;;;;4987442;28;20184;-52
2022/03/28 07:25:21;;;;;;;3.10;2.90;;;18.00;50.20;18.90;101541.00;;;;4986629;28;20433;-52
2022/03/28 07:27:50;;;;;;;2.90;2.70;;;18.00;50.20;18.90;101541.00;;;;4986466;28;20756;-53
2022/03/28 07:30:17;;;;;;;2.90;2.70;;;18.00;50.20;18.90;101544.00;;;;4987021;28;20420;-53
2022/03/28 07:32:42;;;;;;;2.97;2.77;;;18.00;50.20;18.90;101540.00;;;;4986448;28;20208;-53
2022/03/28 07:35:08;;;;;;;3.13;2.67;;;18.00;50.50;18.90;101535.00;;;;4985921;28;20564;-55
2022/03/28 07:37:34;;;;;;;2.90;2.70;;;18.00;50.30;18.90;101544.00;;;;4984775;28;20175;-53
2022/03/28 07:40:02;;;;;;;6.40;2.80;;;18.00;50.30;18.90;101531.00;;;;4986227;28;20599;-53
2022/03/28 07:42:28;;;;;;;3.00;2.70;;;18.00;50.40;18.90;101531.00;;;;4984340;28;20249;-54
2022/03/28 07:44:56;;;;;;;3.10;2.90;;;18.00;50.30;18.90;101538.00;;;;4985746;28;20729;-54
2022/03/28 07:47:23;;;;;;;2.97;2.77;;;18.00;50.40;18.90;101528.00;;;;4985449;28;20637;-53
2022/03/28 07:49:49;;;;;;;3.27;2.90;;;18.00;50.50;18.90;101537.00;;;;4986368;28;20182;-54
2022/03/28 07:52:15;;;;;;;3.10;2.80;;;17.90;50.40;18.90;101543.00;;;;4982711;28;20177;-54
2022/03/28 07:54:40;;;;;;;3.83;2.80;;;18.00;50.40;18.80;101537.00;;;;4849544;28;20596;-53
2022/03/28 07:57:06;;;;;;;2.83;2.63;;;17.90;50.40;18.80;101530.00;;;;4985533;28;20252;-54
2022/03/28 07:59:32;;;;;;;3.20;2.90;;;17.90;50.30;18.80;101522.00;;;;4986764;28;20199;-54
2022/03/28 08:01:58;;;;;;;3.07;2.70;;;18.00;50.40;18.80;101520.00;;;;4995160;28;20169;-54
2022/03/28 08:04:23;;;;;;;3.20;2.90;;;17.90;50.30;18.80;101519.00;;;;4988965;28;20526;-55
2022/03/28 08:06:50;;;;;;;2.90;2.60;;;17.90;50.50;18.80;101515.00;;;;4987411;28;20175;-54
2022/03/28 08:09:17;;;;;;;3.27;3.03;;;17.90;50.40;18.80;101515.00;;;;4985392;28;20217;-53
2022/03/28 08:11:43;;;;;;;3.47;2.70;;;17.90;50.40;18.80;101517.00;;;;4983262;28;20671;-53
2022/03/28 08:14:08;;;;;;;3.70;2.80;;;17.90;50.40;18.80;101517.00;;;;4985825;28;20175;-55
2022/03/28 08:16:34;;;;;;;5.47;3.00;;;17.90;50.50;18.80;101513.00;;;;4984371;28;20562;-55
2022/03/28 08:19:00;;;;;;;4.33;3.13;;;17.90;50.70;18.80;101508.00;;;;4985559;28;20597;-54
2022/03/28 08:21:26;;;;;;;3.20;2.90;;;17.90;50.70;18.80;101503.00;;;;4985784;28;20173;-53
2022/03/28 08:23:51;;;;;;;3.40;3.10;;;17.90;51.60;18.80;101427.00;;;;4984824;28;20180;-55
2022/03/28 08:26:17;;;;;;;4.50;3.20;;;17.90;50.80;18.80;101494.00;;;;4982527;28;20203;-53
2022/03/28 08:28:44;;;;;;;10.87;3.00;;;17.90;51.00;18.80;101489.00;;;;4984840;28;20209;-54
2022/03/28 08:31:10;;;;;;;3.80;3.00;;;17.80;51.70;18.70;101492.00;;;;4985835;28;20196;-54
2022/03/28 08:33:36;;;;;;;3.40;3.00;;;17.80;52.20;18.70;101495.00;;;;4986009;28;20185;-53
2022/03/28 08:36:01;;;;;;;3.70;3.30;;;17.80;52.00;18.70;101493.00;;;;4984660;28;20175;-54
2022/03/28 08:38:27;;;;;;;5.30;3.40;;;17.80;51.80;18.70;101482.00;;;;4985710;28;20211;-53
2022/03/28 08:40:54;;;;;;;6.53;3.40;;;17.90;52.10;18.70;101473.00;;;;4985003;28;20172;-54
2022/03/28 08:43:20;;;;;;;21.43;3.97;;;17.90;52.50;18.70;101473.00;;;;4984653;28;20226;-55
2022/03/28 08:45:50;;;;;;;7.33;3.40;;;18.00;53.00;18.80;101472.00;;;;4985798;28;20175;-53
2022/03/28 08:48:16;;;;;;;12.43;3.40;;;18.00;52.50;18.80;101475.00;;;;4981670;28;20188;-53
2022/03/28 08:50:44;;;;;;;7.00;3.43;;;18.10;53.00;18.80;101478.00;;;;4983396;28;20453;-55
2022/03/28 08:53:10;;;;;;;15.27;3.50;;;18.10;53.00;18.80;101485.00;;;;4802802;28;20169;-53
2022/03/28 08:55:41;;;;;;;11.40;3.30;;;18.10;53.00;18.80;101477.00;;;;4988090;28;20367;-53
2022/03/28 08:58:08;;;;;;;5.50;3.30;;;18.00;53.00;18.80;101468.00;;;;4986846;28;20192;-56
2022/03/28 09:00:34;;;;;;;6.63;3.43;;;18.00;53.50;18.80;101471.00;;;;4988350;28;20925;-55
2022/03/28 09:02:59;;;;;;;4.97;2.87;;;18.10;54.70;18.90;101468.00;;;;4988523;28;20268;-55
2022/03/28 09:05:36;;;;;;;4.57;2.80;;;18.40;54.60;19.00;101459.00;;;;4988875;28;20297;-54
2022/03/28 09:08:03;;;;;;;8.77;3.30;;;18.50;54.70;19.00;101453.00;;;;4984301;28;20218;-54
2022/03/28 09:10:33;;;;;;;7.37;3.00;;;18.50;54.30;19.00;101460.00;;;;4988527;28;20184;-54
2022/03/28 09:13:11;;;;;;;5.73;2.93;;;18.40;54.30;19.00;101463.00;;;;4988330;28;20170;-54
2022/03/28 09:15:50;;;;;;;4.00;3.10;;;18.30;54.60;19.00;101462.00;;;;4983428;28;20216;-54
2022/03/28 09:18:28;;;;;;;4.57;3.10;;;18.20;55.10;19.00;101446.00;;;;4983290;28;20725;-53
2022/03/28 09:21:06;;;;;;;7.27;2.97;;;18.20;55.00;19.00;101456.00;;;;4983318;28;20174;-54
2022/03/28 09:23:48;;;;;;;8.10;3.20;;;18.20;56.20;19.00;101447.00;;;;4988365;28;20263;-54
2022/03/28 09:26:18;;;;;;;6.63;3.30;;;18.20;56.90;18.90;101453.00;;;;4985752;28;20635;-51
2022/03/28 09:29:00;;;;;;;6.87;3.03;;;18.20;58.20;18.90;101448.00;;;;4988338;28;20387;-52
2022/03/28 09:31:44;;;;;;;5.03;3.20;;;18.20;58.10;18.90;101450.00;;;;4991084;28;20259;-52
2022/03/28 09:34:16;;;;;;;4.67;3.23;;;18.10;58.00;19.00;101449.00;;;;4988591;28;20169;-52
2022/03/28 09:36:53;;;;;;;4.53;3.30;;;18.20;57.40;19.00;101436.00;;;;4991630;28;20209;-53
2022/03/28 09:39:29;;;;;;;5.50;3.70;;;18.10;57.30;18.90;101428.00;;;;4996502;28;20289;-52
2022/03/28 09:42:09;;;;;;;6.13;3.53;;;18.10;57.30;18.90;101442.00;;;;4987842;28;20658;-52
2022/03/28 09:44:39;;;;;;;5.33;3.63;;;18.10;57.30;18.90;101426.00;;;;4990557;28;20167;-52
2022/03/28 09:47:10;;;;;;;7.93;3.57;;;18.10;57.30;18.90;101430.00;;;;4990944;28;20187;-51
2022/03/28 09:49:43;;;;;;;6.23;3.73;;;18.20;57.20;18.90;101428.00;;;;4989283;28;20202;-51
2022/03/28 09:52:14;;;;;;;6.13;3.50;;;18.10;57.20;18.90;101417.00;;;;4992161;28;20331;-49
2022/03/28 09:54:55;;;;;;;5.73;3.50;;;18.10;57.00;18.90;101416.00;;;;4809581;28;20160;-53
2022/03/28 09:57:25;;;;;;;5.50;3.57;;;18.10;57.00;18.90;101415.00;;;;4986704;28;20180;-51
2022/03/28 09:59:52;;;;;;;8.93;3.50;;;18.10;57.20;18.70;101419.00;;;;4991281;28;20226;-52
2022/03/28 10:02:24;;;;;;;6.03;3.80;;;18.10;57.00;18.90;101403.00;;;;4991490;28;20190;-52
2022/03/28 10:04:52;;;;;;;8.07;3.73;;;18.10;56.90;18.90;101404.00;;;;4991829;28;20255;-52
2022/03/28 10:07:18;;;;;;;4.30;3.53;;;18.10;56.90;18.90;101407.00;;;;4991644;28;20378;-51
2022/03/28 10:09:44;;;;;;;5.50;4.00;;;18.10;56.90;18.90;101403.00;;;;4988884;28;20766;-50
2022/03/28 10:12:10;;;;;;;4.77;3.40;;;18.10;57.10;18.90;101393.00;;;;4990456;28;20178;-52
2022/03/28 10:14:36;;;;;;;4.97;3.60;;;18.10;56.90;18.90;101396.00;;;;4991100;28;20167;-50
2022/03/28 10:17:04;;;;;;;7.40;3.47;;;18.20;56.90;18.90;101387.00;;;;4991058;28;20187;-51
2022/03/28 10:19:32;;;;;;;5.20;3.60;;;18.20;57.60;18.90;101391.00;;;;4989632;28;20198;-52
2022/03/28 10:22:00;;;;;;;5.50;3.60;;;18.20;57.90;18.90;101375.00;;;;4989673;28;20168;-51
2022/03/28 10:24:28;;;;;;;7.83;3.90;;;18.20;57.40;18.90;101382.00;;;;4988515;28;20232;-51
2022/03/28 10:26:55;;;;;;;8.97;3.93;;;18.20;58.10;18.90;101389.00;;;;4986887;28;20174;-51
2022/03/28 10:29:22;;;;;;;5.93;3.80;;;18.30;58.50;19.00;101381.00;;;;4989866;28;20197;-51
2022/03/28 10:31:59;;;;;;;8.07;3.97;;;18.30;58.00;19.00;101374.00;;;;4992835;28;20182;-52
2022/03/28 10:34:53;;;;;;;8.37;3.90;;;18.30;57.60;19.00;101371.00;;;;4993785;28;20209;-51
2022/03/28 10:37:43;;;;;;;8.87;3.87;;;18.20;57.60;19.00;101359.00;;;;4992743;28;20201;-51
2022/03/28 10:40:12;;;;;;;5.70;3.67;;;18.30;57.50;19.00;101351.00;;;;4991318;28;20215;-50
2022/03/28 10:43:12;;;;;;;6.30;3.57;;;18.30;57.40;19.00;101350.00;;;;4990716;28;20190;-51
2022/03/28 10:45:56;;;;;;;4.97;3.70;;;18.30;57.40;19.00;101342.00;;;;4986475;28;20462;-51
2022/03/28 10:48:39;;;;;;;5.63;3.83;;;18.30;57.50;19.00;101340.00;;;;4991118;28;20206;-53
2022/03/28 10:51:11;;;;;;;5.03;4.03;;;18.30;57.50;19.00;101340.00;;;;5010549;28;20534;-52